createdAt,value
2022-07-26T00:02:22.950Z,24.92
2022-07-26T00:04:50.108Z,24.97
2022-07-26T00:07:16.966Z,24.99
2022-07-26T00:09:48.054Z,25.09
2022-07-26T00:12:14.932Z,25.00
2022-07-26T00:14:43.485Z,24.91
2022-07-26T00:17:10.274Z,24.90
2022-07-26T00:19:39.298Z,24.88
2022-07-26T00:22:24.402Z,24.87
2022-07-26T00:24:51.250Z,24.78
2022-07-26T00:27:18.093Z,24.73
2022-07-26T00:29:44.993Z,24.74
2022-07-26T00:32:11.738Z,24.68
2022-07-26T00:34:38.390Z,24.66
2022-07-26T00:37:04.970Z,24.72
2022-07-26T00:39:31.575Z,24.76
2022-07-26T00:41:58.101Z,24.78
2022-07-26T00:44:25.102Z,24.82
2022-07-26T00:46:51.699Z,24.79
2022-07-26T00:49:18.424Z,24.72
2022-07-26T00:51:46.425Z,24.72
2022-07-26T00:54:13.462Z,24.76
2022-07-26T00:56:40.461Z,24.74
2022-07-26T00:59:07.662Z,24.72
2022-07-26T01:01:35.255Z,24.65
2022-07-26T01:04:02.485Z,24.58
2022-07-26T01:06:29.253Z,24.53
2022-07-26T01:08:56.289Z,24.48
2022-07-26T01:11:22.935Z,24.48
2022-07-26T01:13:51.037Z,24.39
2022-07-26T01:16:18.008Z,24.11
2022-07-26T01:18:44.744Z,23.60
2022-07-26T01:21:13.868Z,22.79
2022-07-26T01:23:41.922Z,22.02
2022-07-26T01:26:08.616Z,21.39
2022-07-26T01:28:39.867Z,20.96
2022-07-26T01:31:07.904Z,20.81
2022-07-26T01:33:35.216Z,20.78
2022-07-26T01:36:01.986Z,20.90
2022-07-26T01:38:28.698Z,21.19
2022-07-26T01:40:55.310Z,21.43
2022-07-26T01:43:21.776Z,21.67
2022-07-26T01:45:48.416Z,21.84
2022-07-26T01:48:15.164Z,21.97
2022-07-26T01:50:41.691Z,22.03
2022-07-26T01:53:08.302Z,22.05
2022-07-26T01:55:36.116Z,22.10
2022-07-26T01:58:05.156Z,22.14
2022-07-26T02:00:32.022Z,21.98
2022-07-26T02:02:58.700Z,21.89
2022-07-26T02:05:25.398Z,21.94
2022-07-26T02:07:52.029Z,22.02
2022-07-26T02:10:18.655Z,22.05
2022-07-26T02:12:45.443Z,22.00
2022-07-26T02:15:13.904Z,21.94
2022-07-26T02:17:40.676Z,21.95
2022-07-26T02:20:08.397Z,21.92
2022-07-26T02:22:35.559Z,21.93
2022-07-26T02:25:05.261Z,21.92
2022-07-26T02:27:32.785Z,21.85
2022-07-26T02:29:59.340Z,21.78
2022-07-26T02:32:25.869Z,21.78
2022-07-26T02:34:52.290Z,21.89
2022-07-26T02:37:18.728Z,21.91
2022-07-26T02:39:45.180Z,22.00
2022-07-26T02:42:11.602Z,22.08
2022-07-26T02:44:54.049Z,22.16
2022-07-26T02:47:20.601Z,22.22
2022-07-26T02:49:47.026Z,22.26
2022-07-26T02:52:13.496Z,22.26
2022-07-26T02:54:39.912Z,22.29
2022-07-26T02:57:06.320Z,22.29
2022-07-26T02:59:32.793Z,22.30
2022-07-26T03:01:59.309Z,22.24
2022-07-26T03:04:25.801Z,22.27
2022-07-26T03:06:52.259Z,22.28
2022-07-26T03:09:18.690Z,22.30
2022-07-26T03:11:45.204Z,22.30
2022-07-26T03:14:12.044Z,22.28
2022-07-26T03:16:38.870Z,22.27
2022-07-26T03:19:05.385Z,22.29
2022-07-26T03:21:31.862Z,22.26
2022-07-26T03:23:58.300Z,22.22
2022-07-26T03:26:24.779Z,22.21
2022-07-26T03:28:51.296Z,22.21
2022-07-26T03:31:17.794Z,22.23
2022-07-26T03:33:44.247Z,22.20
2022-07-26T03:36:15.567Z,22.18
2022-07-26T03:38:42.710Z,22.22
2022-07-26T03:41:09.221Z,22.19
2022-07-26T03:43:40.096Z,22.08
2022-07-26T03:46:06.630Z,22.00
2022-07-26T03:48:33.130Z,21.97
2022-07-26T03:51:00.183Z,22.01
2022-07-26T03:53:26.587Z,21.98
2022-07-26T03:56:11.513Z,22.00
2022-07-26T03:58:39.075Z,21.99
2022-07-26T04:01:05.658Z,21.98
2022-07-26T04:03:32.159Z,22.00
2022-07-26T04:05:58.630Z,21.95
2022-07-26T04:08:25.051Z,21.94
2022-07-26T04:10:51.556Z,21.82
2022-07-26T04:13:19.138Z,21.81
2022-07-26T04:15:46.121Z,21.78
2022-07-26T04:18:14.187Z,21.82
2022-07-26T04:20:41.044Z,21.82
2022-07-26T04:23:11.361Z,21.70
2022-07-26T04:25:41.056Z,21.65
2022-07-26T04:28:09.000Z,21.63
2022-07-26T04:30:35.601Z,21.64
2022-07-26T04:33:02.184Z,21.61
2022-07-26T04:35:28.668Z,21.60
2022-07-26T04:37:55.191Z,21.63
2022-07-26T04:40:23.649Z,21.68
2022-07-26T04:42:51.585Z,21.78
2022-07-26T04:45:18.697Z,21.84
2022-07-26T04:47:49.589Z,21.83
2022-07-26T04:50:16.536Z,21.82
2022-07-26T04:52:43.210Z,21.78
2022-07-26T04:55:10.785Z,21.80
2022-07-26T04:57:37.573Z,21.77
2022-07-26T05:00:21.368Z,21.72
2022-07-26T05:02:49.569Z,21.72
2022-07-26T05:05:16.158Z,21.78
2022-07-26T05:07:48.449Z,21.82
2022-07-26T05:10:15.995Z,21.91
2022-07-26T05:12:42.469Z,22.00
2022-07-26T05:15:13.970Z,22.23
2022-07-26T05:17:42.902Z,22.30
2022-07-26T05:20:12.047Z,22.40
2022-07-26T05:22:38.675Z,22.52
2022-07-26T05:25:07.306Z,22.60
2022-07-26T05:27:33.963Z,22.55
2022-07-26T05:30:00.729Z,22.43
2022-07-26T05:32:30.013Z,22.53
2022-07-26T05:34:56.456Z,22.73
2022-07-26T05:37:23.044Z,22.72
2022-07-26T05:39:49.734Z,22.65
2022-07-26T05:42:16.156Z,22.64
2022-07-26T05:44:42.934Z,22.50
2022-07-26T05:47:10.711Z,22.25
2022-07-26T05:49:40.035Z,22.10
2022-07-26T05:52:08.311Z,21.99
2022-07-26T05:54:35.012Z,22.03
2022-07-26T05:57:01.694Z,22.20
2022-07-26T05:59:28.636Z,22.30
2022-07-26T06:01:56.530Z,22.25
2022-07-26T06:04:26.555Z,22.24
2022-07-26T06:06:55.125Z,22.28
2022-07-26T06:09:25.412Z,22.34
2022-07-26T06:11:52.438Z,22.56
2022-07-26T06:14:20.032Z,22.79
2022-07-26T06:16:47.710Z,22.85
2022-07-26T06:19:14.708Z,22.93
2022-07-26T06:21:42.222Z,22.94
2022-07-26T06:24:09.053Z,23.08
2022-07-26T06:26:35.790Z,22.98
2022-07-26T06:29:02.264Z,23.03
2022-07-26T06:31:28.756Z,23.06
2022-07-26T06:33:55.323Z,23.08
2022-07-26T06:36:23.480Z,23.00
2022-07-26T06:38:51.623Z,22.97
2022-07-26T06:41:18.065Z,23.08
2022-07-26T06:43:44.529Z,23.08
2022-07-26T06:46:11.026Z,23.07
2022-07-26T06:48:37.532Z,23.16
2022-07-26T06:51:06.147Z,23.28
2022-07-26T06:53:32.664Z,23.34
2022-07-26T06:55:59.422Z,23.43
2022-07-26T06:58:25.894Z,23.46
2022-07-26T07:00:52.521Z,23.50
2022-07-26T07:03:19.218Z,23.46
2022-07-26T07:05:50.091Z,23.40
2022-07-26T07:08:17.385Z,23.48
2022-07-26T07:10:44.481Z,23.59
2022-07-26T07:13:10.900Z,23.85
2022-07-26T07:15:37.437Z,24.00
2022-07-26T07:18:04.159Z,24.09
2022-07-26T07:20:30.682Z,23.97
2022-07-26T07:22:57.108Z,23.99
2022-07-26T07:25:30.473Z,24.04
2022-07-26T07:27:57.945Z,24.12
2022-07-26T07:30:24.400Z,24.21
2022-07-26T07:32:55.808Z,24.31
2022-07-26T07:35:23.384Z,24.40
2022-07-26T07:37:53.266Z,24.44
2022-07-26T07:40:21.396Z,24.52
2022-07-26T07:42:48.017Z,24.69
2022-07-26T07:45:14.843Z,24.91
2022-07-26T07:47:41.536Z,24.99
2022-07-26T07:50:08.573Z,24.95
2022-07-26T07:52:35.041Z,24.90
2022-07-26T07:55:36.772Z,24.81
2022-07-26T07:57:48.076Z,24.78
2022-07-26T08:00:16.708Z,24.88
2022-07-26T08:02:45.314Z,24.89
2022-07-26T08:05:14.264Z,25.02
2022-07-26T08:07:41.712Z,25.03
2022-07-26T08:10:08.724Z,25.02
2022-07-26T08:12:35.390Z,25.10
2022-07-26T08:15:07.223Z,25.09
2022-07-26T08:17:34.679Z,25.02
2022-07-26T08:20:05.166Z,25.08
2022-07-26T08:22:34.545Z,25.02
2022-07-26T08:25:00.983Z,24.96
2022-07-26T08:27:27.529Z,25.11
2022-07-26T08:29:53.967Z,25.11
2022-07-26T08:32:20.965Z,24.69
2022-07-26T08:34:47.542Z,24.81
2022-07-26T08:37:17.617Z,24.47
2022-07-26T08:39:45.641Z,24.46
2022-07-26T08:42:22.866Z,24.73
2022-07-26T08:44:51.294Z,24.96
2022-07-26T08:47:21.459Z,24.96
2022-07-26T08:50:07.445Z,24.96
2022-07-26T08:52:34.533Z,25.13
2022-07-26T08:55:00.970Z,25.15
2022-07-26T08:57:27.390Z,25.02
2022-07-26T09:00:15.798Z,24.71
2022-07-26T09:02:42.486Z,24.35
2022-07-26T09:05:09.034Z,24.77
2022-07-26T09:07:35.956Z,25.03
2022-07-26T09:10:06.542Z,25.16
2022-07-26T09:12:33.590Z,25.23
2022-07-26T09:15:01.241Z,25.24
2022-07-26T09:17:42.399Z,25.45
2022-07-26T09:20:17.311Z,25.44
2022-07-26T09:23:00.274Z,25.62
2022-07-26T09:25:30.553Z,25.76
2022-07-26T09:27:57.388Z,25.85
2022-07-26T09:30:23.814Z,25.77
2022-07-26T09:33:06.835Z,25.73
2022-07-26T09:35:50.382Z,25.74
2022-07-26T09:38:18.502Z,25.81
2022-07-26T09:40:47.316Z,25.70
2022-07-26T09:43:23.906Z,25.74
2022-07-26T09:46:04.833Z,25.87
2022-07-26T09:48:52.364Z,25.92
2022-07-26T09:51:35.573Z,25.86
2022-07-26T09:54:02.279Z,25.96
2022-07-26T09:56:51.063Z,26.10
2022-07-26T09:59:20.016Z,25.99
2022-07-26T10:01:47.672Z,26.00
2022-07-26T10:04:14.916Z,25.96
2022-07-26T10:06:42.627Z,25.96
2022-07-26T10:09:10.645Z,25.95
2022-07-26T10:11:50.158Z,25.79
2022-07-26T10:14:37.949Z,25.72
2022-07-26T10:17:41.652Z,25.92
2022-07-26T10:20:17.348Z,25.80
2022-07-26T10:22:51.020Z,25.69
2022-07-26T10:25:17.402Z,25.63
2022-07-26T10:27:55.433Z,25.82
2022-07-26T10:30:33.777Z,25.85
2022-07-26T10:33:10.163Z,25.88
2022-07-26T10:35:36.657Z,25.82
2022-07-26T10:38:26.834Z,25.91
2022-07-26T10:41:07.533Z,25.98
2022-07-26T10:43:42.500Z,25.97
2022-07-26T10:46:15.576Z,26.03
2022-07-26T10:48:59.707Z,26.07
2022-07-26T10:51:33.999Z,26.07
2022-07-26T10:54:05.158Z,26.03
2022-07-26T10:56:33.722Z,26.12
2022-07-26T10:59:00.851Z,26.23
2022-07-26T11:01:38.419Z,26.26
2022-07-26T11:04:06.765Z,26.38
2022-07-26T11:06:33.471Z,26.53
2022-07-26T11:09:10.382Z,26.68
2022-07-26T11:11:36.821Z,26.62
2022-07-26T11:14:07.033Z,26.62
2022-07-26T11:16:41.640Z,26.57
2022-07-26T11:19:15.424Z,26.57
2022-07-26T11:21:42.549Z,26.55
2022-07-26T11:24:09.689Z,26.52
2022-07-26T11:26:44.547Z,26.43
2022-07-26T11:29:16.775Z,26.45
2022-07-26T11:31:50.537Z,26.35
2022-07-26T11:34:28.344Z,26.25
2022-07-26T11:36:57.272Z,26.45
2022-07-26T11:39:27.531Z,26.59
2022-07-26T11:42:02.544Z,26.54
2022-07-26T11:44:29.934Z,26.51
2022-07-26T11:46:57.978Z,26.69
2022-07-26T11:49:51.896Z,26.54
2022-07-26T11:52:13.691Z,26.58
2022-07-26T11:54:49.977Z,26.83
2022-07-26T11:57:17.338Z,27.05
2022-07-26T11:59:45.348Z,27.00
2022-07-26T12:02:13.463Z,27.00
2022-07-26T12:04:42.655Z,27.02
2022-07-26T12:07:16.767Z,27.01
2022-07-26T12:09:53.369Z,26.88
2022-07-26T12:12:28.775Z,26.81
2022-07-26T12:14:57.652Z,26.72
2022-07-26T12:17:24.099Z,26.73
2022-07-26T12:19:50.839Z,27.00
2022-07-26T12:22:22.347Z,27.26
2022-07-26T12:24:51.945Z,27.45
2022-07-26T12:27:19.906Z,27.27
2022-07-26T12:30:13.394Z,26.81
2022-07-26T12:32:42.111Z,26.82
2022-07-26T12:35:14.231Z,26.89
2022-07-26T12:37:46.530Z,26.78
2022-07-26T12:40:20.154Z,27.13
2022-07-26T12:42:49.740Z,27.19
2022-07-26T12:45:19.272Z,27.20
2022-07-26T12:47:48.474Z,27.29
2022-07-26T12:50:17.016Z,27.37
2022-07-26T12:52:44.102Z,27.41
2022-07-26T12:55:14.823Z,27.00
2022-07-26T12:57:47.651Z,27.02
2022-07-26T13:00:15.946Z,26.71
2022-07-26T13:02:43.194Z,26.93
2022-07-26T13:05:10.831Z,27.41
2022-07-26T13:07:38.165Z,27.69
2022-07-26T13:10:31.951Z,27.89
2022-07-26T13:12:55.615Z,27.96
2022-07-26T13:15:22.204Z,28.06
2022-07-26T13:17:48.693Z,28.04
2022-07-26T13:20:15.120Z,28.00
2022-07-26T13:22:43.743Z,27.99
2022-07-26T13:25:10.327Z,28.14
2022-07-26T13:27:41.393Z,28.12
2022-07-26T13:30:11.572Z,28.05
2022-07-26T13:32:38.037Z,27.76
2022-07-26T13:35:04.747Z,27.54
2022-07-26T13:37:31.157Z,27.91
2022-07-26T13:39:57.544Z,28.28
2022-07-26T13:42:23.996Z,28.65
2022-07-26T13:44:50.489Z,28.66
2022-07-26T13:47:16.993Z,28.64
2022-07-26T13:49:44.247Z,28.66
2022-07-26T13:52:15.359Z,28.61
2022-07-26T13:54:43.229Z,28.61
2022-07-26T13:57:09.682Z,28.59
2022-07-26T13:59:36.171Z,28.66
2022-07-26T14:02:05.099Z,28.75
2022-07-26T14:04:31.767Z,28.81
2022-07-26T14:06:58.188Z,28.65
2022-07-26T14:09:25.002Z,28.62
2022-07-26T14:11:51.613Z,28.53
2022-07-26T14:14:18.203Z,28.47
2022-07-26T14:16:49.514Z,28.60
2022-07-26T14:19:16.499Z,28.79
2022-07-26T14:21:47.522Z,28.52
2022-07-26T14:24:26.461Z,27.84
2022-07-26T14:26:56.893Z,27.71
2022-07-26T14:29:25.893Z,28.10
2022-07-26T14:31:52.504Z,28.14
2022-07-26T14:34:19.154Z,28.18
2022-07-26T14:36:45.683Z,28.55
2022-07-26T14:39:12.165Z,28.71
2022-07-26T14:41:38.704Z,28.90
2022-07-26T14:44:05.433Z,29.08
2022-07-26T14:46:32.029Z,29.11
2022-07-26T14:48:58.644Z,28.84
2022-07-26T14:51:25.553Z,28.39
2022-07-26T14:53:52.932Z,27.99
2022-07-26T14:56:19.387Z,27.93
2022-07-26T14:58:45.928Z,28.29
2022-07-26T15:01:12.498Z,28.54
2022-07-26T15:03:39.100Z,28.91
2022-07-26T15:06:05.662Z,29.21
2022-07-26T15:08:32.141Z,29.02
2022-07-26T15:10:58.657Z,29.02
2022-07-26T15:13:25.185Z,28.42
2022-07-26T15:15:52.149Z,27.65
2022-07-26T15:18:18.915Z,27.24
2022-07-26T15:20:45.372Z,26.97
2022-07-26T15:23:14.948Z,27.25
2022-07-26T15:25:41.814Z,27.97
2022-07-26T15:28:08.375Z,28.47
2022-07-26T15:30:35.739Z,28.51
2022-07-26T15:33:02.268Z,28.05
2022-07-26T15:35:29.810Z,27.62
2022-07-26T15:37:57.647Z,27.31
2022-07-26T15:40:24.742Z,27.34
2022-07-26T15:42:52.177Z,27.69
2022-07-26T15:45:20.672Z,27.97
2022-07-26T15:48:03.328Z,27.88
2022-07-26T15:50:35.580Z,27.45
2022-07-26T15:53:02.135Z,27.72
2022-07-26T15:55:28.621Z,27.84
2022-07-26T15:57:55.655Z,27.78
2022-07-26T16:00:22.371Z,27.91
2022-07-26T16:02:48.961Z,28.11
2022-07-26T16:05:16.511Z,28.25
2022-07-26T16:07:45.145Z,28.31
2022-07-26T16:10:12.733Z,28.20
2022-07-26T16:12:40.711Z,27.83
2022-07-26T16:15:09.240Z,27.47
2022-07-26T16:17:36.654Z,27.21
2022-07-26T16:20:04.246Z,26.95
2022-07-26T16:22:31.641Z,26.80
2022-07-26T16:24:58.164Z,26.90
2022-07-26T16:27:24.657Z,27.08
2022-07-26T16:29:52.506Z,27.19
2022-07-26T16:32:21.046Z,27.29
2022-07-26T16:34:47.590Z,27.37
2022-07-26T16:37:14.152Z,27.30
2022-07-26T16:39:40.626Z,27.25
2022-07-26T16:42:07.625Z,27.19
2022-07-26T16:44:36.235Z,27.07
2022-07-26T16:47:03.562Z,26.90
2022-07-26T16:49:30.284Z,26.83
2022-07-26T16:51:57.656Z,26.85
2022-07-26T16:54:24.187Z,26.94
2022-07-26T16:56:50.642Z,26.99
2022-07-26T16:59:17.764Z,26.91
2022-07-26T17:01:44.600Z,26.82
2022-07-26T17:04:11.196Z,26.75
2022-07-26T17:06:37.802Z,26.71
2022-07-26T17:09:04.578Z,26.66
2022-07-26T17:11:31.123Z,26.45
2022-07-26T17:13:58.057Z,26.52
2022-07-26T17:16:25.026Z,26.61
2022-07-26T17:18:53.015Z,26.95
2022-07-26T17:21:19.911Z,28.93
2022-07-26T17:23:46.562Z,30.16
2022-07-26T17:26:13.027Z,31.02
2022-07-26T17:28:39.482Z,31.59
2022-07-26T17:31:06.000Z,31.57
2022-07-26T17:33:32.629Z,31.64
2022-07-26T17:36:03.308Z,31.39
2022-07-26T17:38:33.396Z,31.31
2022-07-26T17:41:00.673Z,31.32
2022-07-26T17:43:36.374Z,31.82
2022-07-26T17:46:03.911Z,31.67
2022-07-26T17:48:30.486Z,31.18
2022-07-26T17:50:57.016Z,30.89
2022-07-26T17:53:34.150Z,30.77
2022-07-26T17:56:01.714Z,29.55
2022-07-26T17:58:28.187Z,28.21
2022-07-26T18:00:54.665Z,27.41
2022-07-26T18:03:22.067Z,26.87
2022-07-26T18:05:49.593Z,26.52
2022-07-26T18:08:16.630Z,26.29
2022-07-26T18:10:45.338Z,26.15
2022-07-26T18:13:15.497Z,26.08
2022-07-26T18:15:42.064Z,26.02
2022-07-26T18:18:08.748Z,25.94
2022-07-26T18:20:35.154Z,25.85
2022-07-26T18:23:02.642Z,25.73
2022-07-26T18:25:29.793Z,25.67
2022-07-26T18:27:56.338Z,25.60
2022-07-26T18:30:22.891Z,25.55
2022-07-26T18:32:49.301Z,25.53
2022-07-26T18:35:15.822Z,25.48
2022-07-26T18:37:42.259Z,25.46
2022-07-26T18:40:09.106Z,25.37
2022-07-26T18:42:36.175Z,25.33
2022-07-26T18:45:02.708Z,25.29
2022-07-26T18:47:29.321Z,25.24
2022-07-26T18:49:55.818Z,25.20
2022-07-26T18:52:31.521Z,25.10
2022-07-26T18:54:59.434Z,25.07
2022-07-26T18:57:25.893Z,25.05
2022-07-26T18:59:52.391Z,24.99
2022-07-26T19:02:18.860Z,24.96
2022-07-26T19:04:45.325Z,24.92
2022-07-26T19:07:12.061Z,24.89
2022-07-26T19:09:38.494Z,24.90
2022-07-26T19:12:05.097Z,24.90
2022-07-26T19:14:31.590Z,24.89
2022-07-26T19:16:58.133Z,24.87
2022-07-26T19:19:24.665Z,24.87
2022-07-26T19:21:51.099Z,24.84
2022-07-26T19:24:17.582Z,24.82
2022-07-26T19:26:44.244Z,24.81
2022-07-26T19:29:11.132Z,24.76
2022-07-26T19:31:40.204Z,24.76
2022-07-26T19:34:06.758Z,24.75
2022-07-26T19:36:33.232Z,24.74
2022-07-26T19:39:01.103Z,24.74
2022-07-26T19:41:27.536Z,24.73
2022-07-26T19:43:53.944Z,24.70
2022-07-26T19:46:20.481Z,24.67
2022-07-26T19:48:47.135Z,24.66
2022-07-26T19:51:13.733Z,24.67
2022-07-26T19:53:40.226Z,24.64
2022-07-26T19:56:07.770Z,24.62
2022-07-26T19:58:34.345Z,24.58
2022-07-26T20:01:00.953Z,24.54
2022-07-26T20:03:27.605Z,24.50
2022-07-26T20:05:55.810Z,24.43
2022-07-26T20:08:22.450Z,24.40
2022-07-26T20:10:48.993Z,24.38
2022-07-26T20:13:15.596Z,24.34
2022-07-26T20:15:42.519Z,24.30
2022-07-26T20:18:10.228Z,24.27
2022-07-26T20:20:37.210Z,24.25
2022-07-26T20:23:06.004Z,24.25
2022-07-26T20:25:32.700Z,24.20
2022-07-26T20:28:00.138Z,24.18
2022-07-26T20:30:26.724Z,24.14
2022-07-26T20:32:53.158Z,24.12
2022-07-26T20:38:10.839Z,24.10
2022-07-26T20:40:37.297Z,24.07
2022-07-26T20:43:05.646Z,24.07
2022-07-26T20:45:32.412Z,24.07
2022-07-26T20:47:59.286Z,24.09
2022-07-26T20:50:29.476Z,24.04
2022-07-26T20:52:56.133Z,23.97
2022-07-26T20:55:23.471Z,23.96
2022-07-26T20:57:50.354Z,23.97
2022-07-26T21:00:17.821Z,23.94
